Time;durP1;ratioP1;P1;durP2;ratioP2;P2;SDS_P1;SDS_P2;PMS_P1;PMS_P2;Temp;Humidity;BMP_temperature;BMP_pressure;BME280_temperature;BME280_humidity;BME280_pressure;Samples;Min_cycle;Max_cycle;Signal;HPM_P1;HPM_P2
2021/08/28 00:01:32;;;;;;;;;;;;;;;;;;5012019;28;19926;-72
2021/08/28 00:03:59;;;;;;;;;;;;;;;;;;5012676;28;20012;-72
2021/08/28 00:06:28;;;;;;;;;;;;;;;;;;5014287;28;20519;-72
2021/08/28 00:08:55;;;;;;;;;;;;;;;;;;5009227;28;20437;-72
2021/08/28 00:11:22;;;;;;;;;;;;;;;;;;5015321;28;20301;-72
2021/08/28 00:13:49;;;;;;;;;;;;;;;;;;5015733;28;19926;-71
2021/08/28 00:16:16;;;;;;;;;;;;;;;;;;5014253;28;19925;-72
2021/08/28 00:18:42;;;;;;;;;;;;;;;;;;5013010;28;20017;-72
2021/08/28 00:21:09;;;;;;;;;;;;;;;;;;5021527;28;19925;-72
2021/08/28 00:23:36;;;;;;;;;;;;;;;;;;5020849;28;19925;-72
2021/08/28 00:26:03;;;;;;;;;;;;;;;;;;5021201;28;20312;-72
2021/08/28 00:28:30;;;;;;;;;;;;;;;;;;5010935;28;20007;-72
2021/08/28 00:30:57;;;;;;;;;;;;;;;;;;5015879;28;19989;-72
2021/08/28 00:33:24;;;;;;;;;;;;;;;;;;5015399;28;19979;-71
2021/08/28 00:35:51;;;;;;;;;;;;;;;;;;5016931;28;20296;-74
2021/08/28 00:38:18;;;;;;;;;;;;;;;;;;5008790;28;19932;-71
2021/08/28 00:40:45;;;;;;;;;;;;;;;;;;5012729;28;19926;-73
2021/08/28 00:43:12;;;;;;;;;;;;;;;;;;5015822;28;20354;-72
2021/08/28 00:45:39;;;;;;;;;;;;;;;;;;5014607;28;19925;-73
2021/08/28 00:48:06;;;;;;;;;;;;;;;;;;5010585;28;20301;-72
2021/08/28 00:50:34;;;;;;;;;;;;;;;;;;5011101;28;19925;-72
2021/08/28 00:53:01;;;;;;;;;;;;;;;;;;5010727;28;19929;-71
2021/08/28 00:55:28;;;;;;;;;;;;;;;;;;5015208;28;19926;-73
2021/08/28 00:57:54;;;;;;;;;;;;;;;;;;5009740;28;19925;-73
2021/08/28 01:00:21;;;;;;;;;;;;;;;;;;5013732;28;19925;-73
2021/08/28 01:02:48;;;;;;;;;;;;;;;;;;5009340;28;19948;-73
2021/08/28 01:05:15;;;;;;;;;;;;;;;;;;5008798;28;20374;-73
2021/08/28 01:07:42;;;;;;;;;;;;;;;;;;5013556;28;19937;-72
2021/08/28 01:10:09;;;;;;;;;;;;;;;;;;5013788;28;20345;-72
2021/08/28 01:12:36;;;;;;;;;;;;;;;;;;5005689;28;20286;-72
2021/08/28 01:15:03;;;;;;;;;;;;;;;;;;5016850;28;19932;-72
2021/08/28 01:17:30;;;;;;;;;;;;;;;;;;5011013;28;19932;-73
2021/08/28 01:19:57;;;;;;;;;;;;;;;;;;5019070;28;19925;-71
2021/08/28 01:22:24;;;;;;;;;;;;;;;;;;5013176;28;20288;-72
2021/08/28 01:24:51;;;;;;;;;;;;;;;;;;5009736;28;19934;-72
2021/08/28 01:27:19;;;;;;;;;;;;;;;;;;5010230;28;19925;-73
2021/08/28 01:29:46;;;;;;;;;;;;;;;;;;5012114;28;19925;-72
2021/08/28 01:32:13;;;;;;;;;;;;;;;;;;5011815;28;19935;-72
2021/08/28 01:34:40;;;;;;;;;;;;;;;;;;5009854;28;20014;-73
2021/08/28 01:37:07;;;;;;;;;;;;;;;;;;5010428;28;20304;-72
2021/08/28 01:39:34;;;;;;;;;;;;;;;;;;5014509;28;20288;-71
2021/08/28 01:42:01;;;;;;;;;;;;;;;;;;5012786;28;19940;-73
2021/08/28 01:44:28;;;;;;;;;;;;;;;;;;5012972;28;20356;-72
2021/08/28 01:46:55;;;;;;;;;;;;;;;;;;5009165;28;20037;-71
2021/08/28 01:49:22;;;;;;;;;;;;;;;;;;5012752;28;19929;-71
2021/08/28 01:51:49;;;;;;;;;;;;;;;;;;5012659;28;19926;-72
2021/08/28 01:54:16;;;;;;;;;;;;;;;;;;5012974;28;20004;-72
2021/08/28 01:56:43;;;;;;;;;;;;;;;;;;5008421;28;19956;-72
2021/08/28 01:59:10;;;;;;;;;;;;;;;;;;5019997;28;19926;-73
2021/08/28 02:01:37;;;;;;;;;;;;;;;;;;5011333;28;19929;-72
2021/08/28 02:04:04;;;;;;;;;;;;;;;;;;5013480;28;20366;-72
2021/08/28 02:06:31;;;;;;;;;;;;;;;;;;5010123;28;20393;-72
2021/08/28 02:08:58;;;;;;;;;;;;;;;;;;5010697;28;19930;-72
2021/08/28 02:11:24;;;;;;;;;;;;;;;;;;5013101;28;20013;-72
2021/08/28 02:13:51;;;;;;;;;;;;;;;;;;5013194;28;20008;-72
2021/08/28 02:16:18;;;;;;;;;;;;;;;;;;5015093;28;19933;-72
2021/08/28 02:18:45;;;;;;;;;;;;;;;;;;5015408;28;20386;-72
2021/08/28 02:21:12;;;;;;;;;;;;;;;;;;5009953;28;19925;-72
2021/08/28 02:23:39;;;;;;;;;;;;;;;;;;5013591;28;19947;-72
2021/08/28 02:26:06;;;;;;;;;;;;;;;;;;5013833;28;19932;-72
2021/08/28 02:28:34;;;;;;;;;;;;;;;;;;5015839;28;19926;-72
2021/08/28 02:31:00;;;;;;;;;;;;;;;;;;5022643;28;19929;-71
2021/08/28 02:33:27;;;;;;;;;;;;;;;;;;5017014;28;20308;-72
2021/08/28 02:35:54;;;;;;;;;;;;;;;;;;5009144;28;19926;-72
2021/08/28 02:38:21;;;;;;;;;;;;;;;;;;5020522;28;19931;-71
2021/08/28 02:40:48;;;;;;;;;;;;;;;;;;5016702;28;19925;-72
2021/08/28 02:43:15;;;;;;;;;;;;;;;;;;5013937;28;19926;-72
2021/08/28 02:45:42;;;;;;;;;;;;;;;;;;5013790;28;19940;-72
2021/08/28 02:48:09;;;;;;;;;;;;;;;;;;5012263;28;19926;-72
2021/08/28 02:50:36;;;;;;;;;;;;;;;;;;5013738;28;19929;-72
2021/08/28 02:53:03;;;;;;;;;;;;;;;;;;5010036;28;19926;-72
2021/08/28 02:55:30;;;;;;;;;;;;;;;;;;5013603;28;20401;-72
2021/08/28 02:57:57;;;;;;;;;;;;;;;;;;5011470;28;19925;-72
2021/08/28 03:00:24;;;;;;;;;;;;;;;;;;5012500;28;19926;-72
2021/08/28 03:02:51;;;;;;;;;;;;;;;;;;5014453;28;19932;-72
2021/08/28 03:05:18;;;;;;;;;;;;;;;;;;5016084;28;19940;-72
2021/08/28 03:07:45;;;;;;;;;;;;;;;;;;5013355;28;20389;-72
2021/08/28 03:10:12;;;;;;;;;;;;;;;;;;5016911;28;20301;-71
2021/08/28 03:12:39;;;;;;;;;;;;;;;;;;5015469;28;19961;-71
2021/08/28 03:15:06;;;;;;;;;;;;;;;;;;5016435;28;20020;-71
2021/08/28 03:17:32;;;;;;;;;;;;;;;;;;5011980;28;19930;-72
2021/08/28 03:19:59;;;;;;;;;;;;;;;;;;5023311;28;19925;-73
2021/08/28 03:22:26;;;;;;;;;;;;;;;;;;5015353;28;19932;-72
2021/08/28 03:24:53;;;;;;;;;;;;;;;;;;5014877;28;20400;-72
2021/08/28 03:27:20;;;;;;;;;;;;;;;;;;5012519;28;19929;-72
2021/08/28 03:29:47;;;;;;;;;;;;;;;;;;5015016;28;20138;-72
2021/08/28 03:32:14;;;;;;;;;;;;;;;;;;5011603;28;20300;-72
2021/08/28 03:34:41;;;;;;;;;;;;;;;;;;5008749;28;19931;-72
2021/08/28 03:37:08;;;;;;;;;;;;;;;;;;5015985;28;19931;-72
2021/08/28 03:39:35;;;;;;;;;;;;;;;;;;5012937;28;19972;-72
2021/08/28 03:42:02;;;;;;;;;;;;;;;;;;5027039;22;19933;-64
2021/08/28 03:44:29;;;;;;;;;;;;;;;;;;5033144;28;19926;-64
2021/08/28 03:46:56;;;;;;;;;;;;;;;;;;5031498;28;19929;-64
2021/08/28 03:49:23;;;;;;;;;;;;;;;;;;5032504;28;19929;-64
2021/08/28 03:51:50;;;;;;;;;;;;;;;;;;5031138;28;19929;-64
2021/08/28 03:54:17;;;;;;;;;;;;;;;;;;5028351;28;19930;-64
2021/08/28 03:56:44;;;;;;;;;;;;;;;;;;5031571;28;19933;-64
2021/08/28 03:59:11;;;;;;;;;;;;;;;;;;5030068;28;19925;-66
2021/08/28 04:01:38;;;;;;;;;;;;;;;;;;5027699;28;19933;-66
2021/08/28 04:04:05;;;;;;;;;;;;;;;;;;5029558;28;19932;-66
2021/08/28 04:06:32;;;;;;;;;;;;;;;;;;5030627;28;19929;-66
2021/08/28 04:08:59;;;;;;;;;;;;;;;;;;5028369;28;19931;-64
2021/08/28 04:11:26;;;;;;;;;;;;;;;;;;5029783;28;20304;-64
2021/08/28 04:13:53;;;;;;;;;;;;;;;;;;5029795;28;19956;-64
2021/08/28 04:16:20;;;;;;;;;;;;;;;;;;5031054;28;20289;-66
2021/08/28 04:18:47;;;;;;;;;;;;;;;;;;5028455;28;19929;-65
2021/08/28 04:21:14;;;;;;;;;;;;;;;;;;5029598;28;19929;-65
2021/08/28 04:23:41;;;;;;;;;;;;;;;;;;5029513;28;20043;-65
2021/08/28 04:26:10;;;;;;;;;;;;;;;;;;5030514;28;19940;-65
2021/08/28 04:28:37;;;;;;;;;;;;;;;;;;5027346;28;19937;-65
2021/08/28 04:31:04;;;;;;;;;;;;;;;;;;5027147;28;20374;-64
2021/08/28 04:33:31;;;;;;;;;;;;;;;;;;5030489;28;19925;-65
2021/08/28 04:35:58;;;;;;;;;;;;;;;;;;5031022;28;19925;-65
2021/08/28 04:38:25;;;;;;;;;;;;;;;;;;5030271;28;20389;-65
2021/08/28 04:40:53;;;;;;;;;;;;;;;;;;5029636;28;20340;-65
2021/08/28 04:43:20;;;;;;;;;;;;;;;;;;5029627;28;20011;-65
2021/08/28 04:45:47;;;;;;;;;;;;;;;;;;5029642;28;19925;-65
2021/08/28 04:48:14;;;;;;;;;;;;;;;;;;5030511;28;19925;-65
2021/08/28 04:50:41;;;;;;;;;;;;;;;;;;5031102;28;19932;-65
2021/08/28 04:53:08;;;;;;;;;;;;;;;;;;5028935;28;20293;-65
2021/08/28 04:55:35;;;;;;;;;;;;;;;;;;5029831;28;19932;-66
2021/08/28 04:58:02;;;;;;;;;;;;;;;;;;5030431;28;19929;-65
2021/08/28 05:00:30;;;;;;;;;;;;;;;;;;5029617;28;19929;-65
2021/08/28 05:02:57;;;;;;;;;;;;;;;;;;5030195;28;19933;-65
2021/08/28 05:05:24;;;;;;;;;;;;;;;;;;5029391;28;19988;-65
2021/08/28 05:07:51;;;;;;;;;;;;;;;;;;5029989;28;19925;-65
2021/08/28 05:10:18;;;;;;;;;;;;;;;;;;5031197;28;19925;-65
2021/08/28 05:12:45;;;;;;;;;;;;;;;;;;5029708;28;19932;-65
2021/08/28 05:15:12;;;;;;;;;;;;;;;;;;5026325;28;20378;-65
2021/08/28 05:17:39;;;;;;;;;;;;;;;;;;5029441;28;19925;-65
2021/08/28 05:20:06;;;;;;;;;;;;;;;;;;5029016;28;19933;-65
2021/08/28 05:22:33;;;;;;;;;;;;;;;;;;5029071;28;19925;-65
2021/08/28 05:25:00;;;;;;;;;;;;;;;;;;5027356;28;19956;-65
2021/08/28 05:27:27;;;;;;;;;;;;;;;;;;5029857;28;19935;-65
2021/08/28 05:29:54;;;;;;;;;;;;;;;;;;5030203;28;19925;-65
2021/08/28 05:32:21;;;;;;;;;;;;;;;;;;5021919;28;19959;-65
2021/08/28 05:34:49;;;;;;;;;;;;;;;;;;5025933;28;20048;-65
2021/08/28 05:37:16;;;;;;;;;;;;;;;;;;5028675;28;19932;-65
2021/08/28 05:39:43;;;;;;;;;;;;;;;;;;5026736;28;20016;-65
2021/08/28 05:42:10;;;;;;;;;;;;;;;;;;5024934;28;19929;-66
2021/08/28 05:44:37;;;;;;;;;;;;;;;;;;5026858;28;19929;-66
2021/08/28 05:47:04;;;;;;;;;;;;;;;;;;5028487;28;19925;-66
2021/08/28 05:49:31;;;;;;;;;;;;;;;;;;5030377;28;20024;-66
2021/08/28 05:51:58;;;;;;;;;;;;;;;;;;5033723;28;20380;-66
2021/08/28 05:54:25;;;;;;;;;;;;;;;;;;5032801;28;19925;-66
2021/08/28 05:56:52;;;;;;;;;;;;;;;;;;5031525;28;20328;-66
2021/08/28 05:59:19;;;;;;;;;;;;;;;;;;5031789;28;19925;-65
2021/08/28 06:01:46;;;;;;;;;;;;;;;;;;5033643;28;19925;-66
2021/08/28 06:04:13;;;;;;;;;;;;;;;;;;5032582;28;20355;-66
2021/08/28 06:06:40;;;;;;;;;;;;;;;;;;5032975;28;19925;-66
2021/08/28 06:09:07;;;;;;;;;;;;;;;;;;5033722;28;19929;-66
2021/08/28 06:11:34;;;;;;;;;;;;;;;;;;5033445;28;19925;-66
2021/08/28 06:14:01;;;;;;;;;;;;;;;;;;5033522;28;20017;-66
2021/08/28 06:16:28;;;;;;;;;;;;;;;;;;5032223;28;19952;-67
2021/08/28 06:18:58;;;;;;;;;;;;;;;;;;5033544;28;19931;-66
2021/08/28 06:21:25;;;;;;;;;;;;;;;;;;5032445;28;19987;-66
2021/08/28 06:23:52;;;;;;;;;;;;;;;;;;5034628;28;19925;-66
2021/08/28 06:26:19;;;;;;;;;;;;;;;;;;5033163;28;19925;-66
2021/08/28 06:28:46;;;;;;;;;;;;;;;;;;5028980;28;19925;-66
2021/08/28 06:31:12;;;;;;;;;;;;;;;;;;5030587;28;19925;-65
2021/08/28 06:33:39;;;;;;;;;;;;;;;;;;5030833;28;19936;-65
2021/08/28 06:36:06;;;;;;;;;;;;;;;;;;5033304;28;19947;-65
2021/08/28 06:38:33;;;;;;;;;;;;;;;;;;5031092;28;19925;-65
2021/08/28 06:41:02;;;;;;;;;;;;;;;;;;5030209;28;19929;-65
2021/08/28 06:43:29;;;;;;;;;;;;;;;;;;5029767;28;19971;-65
2021/08/28 06:45:56;;;;;;;;;;;;;;;;;;5031753;28;19947;-65
2021/08/28 06:48:22;;;;;;;;;;;;;;;;;;5029820;28;20424;-64
2021/08/28 06:50:49;;;;;;;;;;;;;;;;;;5028321;28;20062;-64
2021/08/28 06:53:16;;;;;;;;;;;;;;;;;;5027472;28;19925;-64
2021/08/28 06:55:43;;;;;;;;;;;;;;;;;;5030397;28;19926;-65
2021/08/28 06:58:10;;;;;;;;;;;;;;;;;;5029716;28;19925;-66
2021/08/28 07:00:37;;;;;;;;;;;;;;;;;;5030644;28;20438;-66
2021/08/28 07:03:04;;;;;;;;;;;;;;;;;;5029889;28;19925;-66
2021/08/28 07:05:31;;;;;;;;;;;;;;;;;;5030371;28;20030;-66
2021/08/28 07:07:58;;;;;;;;;;;;;;;;;;5031295;28;20013;-65
2021/08/28 07:10:25;;;;;;;;;;;;;;;;;;5027064;28;20031;-65
2021/08/28 07:12:52;;;;;;;;;;;;;;;;;;5028442;28;19936;-65
2021/08/28 07:15:19;;;;;;;;;;;;;;;;;;5030150;28;20396;-66
2021/08/28 07:17:46;;;;;;;;;;;;;;;;;;5031628;28;19976;-65
2021/08/28 07:20:13;;;;;;;;;;;;;;;;;;5029756;28;19932;-65
2021/08/28 07:22:40;;;;;;;;;;;;;;;;;;5028210;28;19932;-65
2021/08/28 07:25:07;;;;;;;;;;;;;;;;;;5028949;28;19933;-64
2021/08/28 07:27:34;;;;;;;;;;;;;;;;;;5029936;28;20521;-65
2021/08/28 07:30:01;;;;;;;;;;;;;;;;;;5030604;28;19940;-65
2021/08/28 07:32:29;;;;;;;;;;;;;;;;;;5032208;28;19925;-65
2021/08/28 07:34:56;;;;;;;;;;;;;;;;;;5028687;28;19976;-65
2021/08/28 07:37:23;;;;;;;;;;;;;;;;;;5030502;28;19968;-65
2021/08/28 07:39:50;;;;;;;;;;;;;;;;;;5028800;28;19925;-65
2021/08/28 07:42:17;;;;;;;;;;;;;;;;;;5030033;28;19925;-65
2021/08/28 07:44:45;;;;;;;;;;;;;;;;;;5029597;28;19932;-65
2021/08/28 07:47:12;;;;;;;;;;;;;;;;;;5029876;28;19925;-65
2021/08/28 07:49:39;;;;;;;;;;;;;;;;;;5028076;28;20300;-65
2021/08/28 07:52:06;;;;;;;;;;;;;;;;;;5029581;28;19940;-65
2021/08/28 07:54:33;;;;;;;;;;;;;;;;;;5028070;28;19931;-65
2021/08/28 07:57:00;;;;;;;;;;;;;;;;;;5029570;28;20344;-64
2021/08/28 07:59:28;;;;;;;;;;;;;;;;;;5029101;28;19929;-65
2021/08/28 08:01:55;;;;;;;;;;;;;;;;;;5028063;28;20359;-65
2021/08/28 08:04:22;;;;;;;;;;;;;;;;;;5028175;28;19931;-65
2021/08/28 08:06:49;;;;;;;;;;;;;;;;;;5029619;28;20312;-65
2021/08/28 08:09:16;;;;;;;;;;;;;;;;;;5025334;28;19933;-65
2021/08/28 08:11:43;;;;;;;;;;;;;;;;;;5028166;28;19926;-64
2021/08/28 08:14:10;;;;;;;;;;;;;;;;;;5027609;28;19932;-64
2021/08/28 08:16:37;;;;;;;;;;;;;;;;;;5028175;28;19936;-64
2021/08/28 08:19:04;;;;;;;;;;;;;;;;;;5027411;28;19931;-64
2021/08/28 08:21:31;;;;;;;;;;;;;;;;;;5028756;28;19925;-65
2021/08/28 08:23:58;;;;;;;;;;;;;;;;;;5028909;28;20382;-64
2021/08/28 08:26:25;;;;;;;;;;;;;;;;;;5029599;28;19925;-64
2021/08/28 08:28:54;;;;;;;;;;;;;;;;;;5028294;28;19995;-64
2021/08/28 08:31:21;;;;;;;;;;;;;;;;;;5026595;28;20411;-64
2021/08/28 08:33:48;;;;;;;;;;;;;;;;;;5027120;28;20369;-65
2021/08/28 08:36:15;;;;;;;;;;;;;;;;;;5029002;28;19925;-64
2021/08/28 08:38:42;;;;;;;;;;;;;;;;;;5028769;28;19932;-64
2021/08/28 08:41:08;;;;;;;;;;;;;;;;;;5024784;28;19925;-64
2021/08/28 08:43:35;;;;;;;;;;;;;;;;;;5028440;28;19932;-64
2021/08/28 08:46:02;;;;;;;;;;;;;;;;;;5023507;28;20321;-65
2021/08/28 08:48:29;;;;;;;;;;;;;;;;;;5025393;28;20377;-65
2021/08/28 08:50:56;;;;;;;;;;;;;;;;;;5025679;28;20309;-65
2021/08/28 08:53:23;;;;;;;;;;;;;;;;;;5026949;28;20065;-65
2021/08/28 08:55:52;;;;;;;;;;;;;;;;;;5029414;28;19933;-65
2021/08/28 08:58:19;;;;;;;;;;;;;;;;;;5027703;28;19929;-65
2021/08/28 09:00:46;;;;;;;;;;;;;;;;;;5027594;28;19929;-65
2021/08/28 09:03:13;;;;;;;;;;;;;;;;;;5026137;28;19929;-66
2021/08/28 09:05:40;;;;;;;;;;;;;;;;;;5025234;28;19925;-66
2021/08/28 09:08:07;;;;;;;;;;;;;;;;;;5027603;28;19973;-65
2021/08/28 09:10:34;;;;;;;;;;;;;;;;;;5023250;28;19930;-65
2021/08/28 09:13:01;;;;;;;;;;;;;;;;;;5026299;28;19995;-65
2021/08/28 09:15:28;;;;;;;;;;;;;;;;;;5018729;28;20301;-64
2021/08/28 09:17:55;;;;;;;;;;;;;;;;;;5027074;28;19932;-65
2021/08/28 09:20:22;;;;;;;;;;;;;;;;;;5023514;28;19939;-65
2021/08/28 09:22:48;;;;;;;;;;;;;;;;;;5029681;28;20008;-65
2021/08/28 09:25:16;;;;;;;;;;;;;;;;;;5025213;28;20025;-65
2021/08/28 09:27:43;;;;;;;;;;;;;;;;;;5029858;28;19948;-65
2021/08/28 09:30:10;;;;;;;;;;;;;;;;;;5029362;28;20385;-65
2021/08/28 09:32:37;;;;;;;;;;;;;;;;;;5029674;28;19932;-65
2021/08/28 09:35:04;;;;;;;;;;;;;;;;;;5029999;28;19925;-65
2021/08/28 09:37:31;;;;;;;;;;;;;;;;;;5030090;28;20309;-65
2021/08/28 09:39:58;;;;;;;;;;;;;;;;;;5029807;28;20040;-65
2021/08/28 09:42:26;;;;;;;;;;;;;;;;;;5027971;28;19925;-66
2021/08/28 09:44:55;;;;;;;;;;;;;;;;;;5026086;28;19925;-65
2021/08/28 09:47:22;;;;;;;;;;;;;;;;;;5023500;28;19925;-65
2021/08/28 09:49:49;;;;;;;;;;;;;;;;;;5021777;28;19932;-66
2021/08/28 09:52:16;;;;;;;;;;;;;;;;;;5023781;28;19931;-65
2021/08/28 09:54:43;;;;;;;;;;;;;;;;;;5027970;28;19932;-65
2021/08/28 09:57:10;;;;;;;;;;;;;;;;;;5023165;28;19932;-66
2021/08/28 09:59:37;;;;;;;;;;;;;;;;;;5021771;28;19925;-64
2021/08/28 10:02:04;;;;;;;;;;;;;;;;;;5030767;28;19925;-63
2021/08/28 10:04:31;;;;;;;;;;;;;;;;;;5030218;28;19925;-63
2021/08/28 10:06:58;;;;;;;;;;;;;;;;;;5027498;28;19925;-65
2021/08/28 10:09:25;;;;;;;;;;;;;;;;;;5030673;28;19936;-65
2021/08/28 10:11:52;;;;;;;;;;;;;;;;;;5030613;28;20511;-65
2021/08/28 10:14:19;;;;;;;;;;;;;;;;;;5029142;28;19979;-65
2021/08/28 10:16:46;;;;;;;;;;;;;;;;;;5023611;28;20008;-65
2021/08/28 10:19:13;;;;;;;;;;;;;;;;;;5025758;28;20055;-65
2021/08/28 10:21:40;;;;;;;;;;;;;;;;;;5021262;28;19932;-66
2021/08/28 10:24:07;;;;;;;;;;;;;;;;;;5019197;28;20007;-65
2021/08/28 10:26:34;;;;;;;;;;;;;;;;;;5024666;28;19926;-65
2021/08/28 10:29:00;;;;;;;;;;;;;;;;;;5021854;28;19929;-65
2021/08/28 10:31:28;;;;;;;;;;;;;;;;;;5019957;28;20301;-65
2021/08/28 10:33:55;;;;;;;;;;;;;;;;;;5019745;28;19964;-65
2021/08/28 10:36:22;;;;;;;;;;;;;;;;;;5027951;28;19926;-65
2021/08/28 10:38:49;;;;;;;;;;;;;;;;;;5027925;28;19925;-66
2021/08/28 10:41:16;;;;;;;;;;;;;;;;;;5024844;28;19969;-66
2021/08/28 10:43:43;;;;;;;;;;;;;;;;;;5024840;28;19997;-65
2021/08/28 10:46:10;;;;;;;;;;;;;;;;;;5029110;28;19931;-65
2021/08/28 10:48:37;;;;;;;;;;;;;;;;;;5027128;28;19930;-65
2021/08/28 10:51:04;;;;;;;;;;;;;;;;;;5026931;28;19932;-65
2021/08/28 10:53:31;;;;;;;;;;;;;;;;;;5025559;28;20302;-65
2021/08/28 10:55:59;;;;;;;;;;;;;;;;;;5022774;28;19939;-65
2021/08/28 10:58:26;;;;;;;;;;;;;;;;;;5023684;28;19925;-65
2021/08/28 11:00:54;;;;;;;;;;;;;;;;;;5026968;28;19951;-65
2021/08/28 11:03:21;;;;;;;;;;;;;;;;;;5022455;28;20415;-64
2021/08/28 11:05:48;;;;;;;;;;;;;;;;;;5027371;28;20039;-66
2021/08/28 11:08:15;;;;;;;;;;;;;;;;;;5026735;28;20092;-64
2021/08/28 11:10:42;;;;;;;;;;;;;;;;;;5024900;28;19992;-66
2021/08/28 11:13:08;;;;;;;;;;;;;;;;;;5020957;28;19930;-65
2021/08/28 11:15:35;;;;;;;;;;;;;;;;;;5026284;28;19925;-66
2021/08/28 11:18:02;;;;;;;;;;;;;;;;;;5025026;28;19933;-65
2021/08/28 11:20:30;;;;;;;;;;;;;;;;;;5026939;28;19936;-66
2021/08/28 11:22:56;;;;;;;;;;;;;;;;;;5025885;28;19931;-66
2021/08/28 11:25:23;;;;;;;;;;;;;;;;;;5026055;28;19929;-65
2021/08/28 11:27:50;;;;;;;;;;;;;;;;;;5023529;28;19951;-64
2021/08/28 11:30:17;;;;;;;;;;;;;;;;;;5024209;28;19925;-66
2021/08/28 11:32:44;;;;;;;;;;;;;;;;;;5026842;28;19965;-64
2021/08/28 11:35:11;;;;;;;;;;;;;;;;;;5024164;28;19925;-65
2021/08/28 11:37:38;;;;;;;;;;;;;;;;;;5026214;28;20020;-66
2021/08/28 11:40:06;;;;;;;;;;;;;;;;;;5028583;28;20461;-66
2021/08/28 11:42:33;;;;;;;;;;;;;;;;;;5025014;28;20572;-66
2021/08/28 11:45:00;;;;;;;;;;;;;;;;;;5027830;28;19925;-65
2021/08/28 11:47:27;;;;;;;;;;;;;;;;;;5021511;28;19984;-66
2021/08/28 11:49:54;;;;;;;;;;;;;;;;;;5026704;28;19995;-65
2021/08/28 11:52:21;;;;;;;;;;;;;;;;;;5018541;28;20023;-65
2021/08/28 11:54:48;;;;;;;;;;;;;;;;;;5028017;28;19925;-66
2021/08/28 11:57:15;;;;;;;;;;;;;;;;;;5021308;28;19931;-66
2021/08/28 11:59:43;;;;;;;;;;;;;;;;;;5022920;28;19925;-66
2021/08/28 12:02:10;;;;;;;;;;;;;;;;;;5030152;28;20459;-66
2021/08/28 12:04:37;;;;;;;;;;;;;;;;;;5030307;28;20344;-64
2021/08/28 12:07:04;;;;;;;;;;;;;;;;;;5023634;28;19925;-64
2021/08/28 12:09:31;;;;;;;;;;;;;;;;;;5021121;28;20420;-65
2021/08/28 12:11:58;;;;;;;;;;;;;;;;;;5025411;28;19930;-66
2021/08/28 12:14:25;;;;;;;;;;;;;;;;;;5023080;28;19925;-66
2021/08/28 12:16:51;;;;;;;;;;;;;;;;;;5024228;28;19931;-66
2021/08/28 12:19:18;;;;;;;;;;;;;;;;;;5023842;28;20320;-66
2021/08/28 12:21:45;;;;;;;;;;;;;;;;;;5024059;28;19932;-66
2021/08/28 12:24:12;;;;;;;;;;;;;;;;;;5025011;28;20539;-66
2021/08/28 12:26:39;;;;;;;;;;;;;;;;;;5028611;28;19929;-65
2021/08/28 12:29:06;;;;;;;;;;;;;;;;;;5023322;28;19935;-66
2021/08/28 12:31:33;;;;;;;;;;;;;;;;;;5018648;28;20024;-66
2021/08/28 12:34:00;;;;;;;;;;;;;;;;;;5023586;28;19929;-66
2021/08/28 12:36:27;;;;;;;;;;;;;;;;;;5028372;28;20201;-66
2021/08/28 12:38:54;;;;;;;;;;;;;;;;;;5027335;28;19929;-66
2021/08/28 12:41:21;;;;;;;;;;;;;;;;;;5020170;28;19925;-66
2021/08/28 12:43:48;;;;;;;;;;;;;;;;;;5026336;28;19932;-66
2021/08/28 12:46:15;;;;;;;;;;;;;;;;;;5023166;28;19929;-65
2021/08/28 12:48:42;;;;;;;;;;;;;;;;;;5021450;28;19925;-65
2021/08/28 12:51:09;;;;;;;;;;;;;;;;;;5016432;28;19932;-65
2021/08/28 12:53:36;;;;;;;;;;;;;;;;;;5021813;28;19940;-65
2021/08/28 12:56:03;;;;;;;;;;;;;;;;;;5020918;28;20297;-65
2021/08/28 12:58:30;;;;;;;;;;;;;;;;;;5020329;28;19929;-65
2021/08/28 13:00:57;;;;;;;;;;;;;;;;;;5023813;28;19964;-65
2021/08/28 13:03:24;;;;;;;;;;;;;;;;;;5022855;28;20031;-65
2021/08/28 13:05:51;;;;;;;;;;;;;;;;;;5022657;28;19928;-65
2021/08/28 13:08:18;;;;;;;;;;;;;;;;;;5023686;28;19931;-66
2021/08/28 13:10:45;;;;;;;;;;;;;;;;;;5025014;28;21039;-66
2021/08/28 13:13:12;;;;;;;;;;;;;;;;;;5022561;28;19975;-66
2021/08/28 13:15:40;;;;;;;;;;;;;;;;;;5025210;28;19931;-66
2021/08/28 13:18:07;;;;;;;;;;;;;;;;;;5023782;28;20305;-66
2021/08/28 13:20:34;;;;;;;;;;;;;;;;;;5025150;28;19929;-66
2021/08/28 13:23:01;;;;;;;;;;;;;;;;;;5025887;28;19925;-65
2021/08/28 13:25:28;;;;;;;;;;;;;;;;;;5024639;28;19925;-66
2021/08/28 13:27:55;;;;;;;;;;;;;;;;;;5026235;28;19947;-67
2021/08/28 13:30:22;;;;;;;;;;;;;;;;;;5026638;28;19988;-67
2021/08/28 13:32:49;;;;;;;;;;;;;;;;;;5021101;28;19968;-67
2021/08/28 13:35:16;;;;;;;;;;;;;;;;;;5021450;28;20021;-66
2021/08/28 13:37:43;;;;;;;;;;;;;;;;;;5021146;28;19926;-67
2021/08/28 13:40:10;;;;;;;;;;;;;;;;;;5022471;28;19936;-66
2021/08/28 13:42:37;;;;;;;;;;;;;;;;;;5021773;28;19925;-66
2021/08/28 13:45:04;;;;;;;;;;;;;;;;;;5024161;28;19925;-66
2021/08/28 13:47:30;;;;;;;;;;;;;;;;;;5026089;28;20300;-67
2021/08/28 13:49:57;;;;;;;;;;;;;;;;;;5028987;28;19925;-66
2021/08/28 13:52:24;;;;;;;;;;;;;;;;;;5023365;28;19935;-67
2021/08/28 13:54:51;;;;;;;;;;;;;;;;;;5026261;28;19925;-66
2021/08/28 13:57:18;;;;;;;;;;;;;;;;;;5026082;28;20314;-67
2021/08/28 13:59:45;;;;;;;;;;;;;;;;;;5027915;28;19930;-66
2021/08/28 14:02:12;;;;;;;;;;;;;;;;;;5028211;28;19976;-66
2021/08/28 14:04:39;;;;;;;;;;;;;;;;;;5028637;28;20025;-66
2021/08/28 14:07:06;;;;;;;;;;;;;;;;;;5022727;28;20421;-66
2021/08/28 14:09:33;;;;;;;;;;;;;;;;;;5024527;28;19932;-65
2021/08/28 14:12:00;;;;;;;;;;;;;;;;;;5026920;28;19929;-66
2021/08/28 14:14:27;;;;;;;;;;;;;;;;;;5028233;28;19931;-66
2021/08/28 14:16:54;;;;;;;;;;;;;;;;;;5026346;28;20232;-65
2021/08/28 14:19:21;;;;;;;;;;;;;;;;;;5025960;28;20457;-67
2021/08/28 14:21:48;;;;;;;;;;;;;;;;;;5023688;28;20346;-65
2021/08/28 14:24:15;;;;;;;;;;;;;;;;;;5027684;28;20424;-66
2021/08/28 14:26:42;;;;;;;;;;;;;;;;;;5028002;28;19963;-67
2021/08/28 14:29:09;;;;;;;;;;;;;;;;;;5025900;28;19929;-66
2021/08/28 14:31:36;;;;;;;;;;;;;;;;;;5025583;28;19925;-65
2021/08/28 14:34:03;;;;;;;;;;;;;;;;;;5025085;28;19933;-67
2021/08/28 14:36:32;;;;;;;;;;;;;;;;;;5027460;28;19925;-66
2021/08/28 14:38:59;;;;;;;;;;;;;;;;;;5025892;28;19925;-66
2021/08/28 14:41:26;;;;;;;;;;;;;;;;;;5024961;28;19925;-67
2021/08/28 14:43:53;;;;;;;;;;;;;;;;;;5027830;28;20016;-66
2021/08/28 14:46:20;;;;;;;;;;;;;;;;;;5026009;28;19925;-66
2021/08/28 14:48:47;;;;;;;;;;;;;;;;;;5030202;28;20398;-67
2021/08/28 14:51:14;;;;;;;;;;;;;;;;;;5028547;28;20378;-67
2021/08/28 14:53:41;;;;;;;;;;;;;;;;;;5028424;28;19937;-67
2021/08/28 14:56:08;;;;;;;;;;;;;;;;;;5026776;28;19925;-66
2021/08/28 14:58:35;;;;;;;;;;;;;;;;;;5024397;28;20374;-66
2021/08/28 15:01:02;;;;;;;;;;;;;;;;;;5026502;28;19929;-67
2021/08/28 15:03:29;;;;;;;;;;;;;;;;;;5023991;28;19925;-66
2021/08/28 15:05:56;;;;;;;;;;;;;;;;;;5027215;28;20431;-67
2021/08/28 15:08:23;;;;;;;;;;;;;;;;;;5027757;28;20791;-67
2021/08/28 15:10:50;;;;;;;;;;;;;;;;;;5025558;28;19932;-66
2021/08/28 15:13:17;;;;;;;;;;;;;;;;;;5028503;28;19925;-66
2021/08/28 15:15:44;;;;;;;;;;;;;;;;;;5025851;28;20294;-66
2021/08/28 15:18:11;;;;;;;;;;;;;;;;;;5027892;28;19929;-65
2021/08/28 15:20:38;;;;;;;;;;;;;;;;;;5027196;28;19948;-67
2021/08/28 15:23:05;;;;;;;;;;;;;;;;;;5026787;28;20378;-66
2021/08/28 15:25:32;;;;;;;;;;;;;;;;;;5027446;28;19929;-66
2021/08/28 15:27:59;;;;;;;;;;;;;;;;;;5026716;28;19932;-66
2021/08/28 15:30:26;;;;;;;;;;;;;;;;;;5025699;28;19933;-66
2021/08/28 15:32:53;;;;;;;;;;;;;;;;;;5023459;28;19925;-67
2021/08/28 15:35:20;;;;;;;;;;;;;;;;;;5028959;28;19933;-66
2021/08/28 15:37:47;;;;;;;;;;;;;;;;;;5031614;28;19932;-66
2021/08/28 15:40:13;;;;;;;;;;;;;;;;;;5029636;28;19968;-66
2021/08/28 15:42:40;;;;;;;;;;;;;;;;;;5048174;22;19925;-67
2021/08/28 15:45:07;;;;;;;;;;;;;;;;;;5043859;28;19924;-67
2021/08/28 15:47:34;;;;;;;;;;;;;;;;;;5044215;28;20443;-66
2021/08/28 15:50:01;;;;;;;;;;;;;;;;;;5048322;28;19925;-67
2021/08/28 15:52:28;;;;;;;;;;;;;;;;;;5041179;28;19925;-67
2021/08/28 15:54:58;;;;;;;;;;;;;;;;;;5026102;28;19932;-67
2021/08/28 15:57:24;;;;;;;;;;;;;;;;;;5026447;28;20360;-67
2021/08/28 15:59:53;;;;;;;;;;;;;;;;;;5024000;28;19925;-67
2021/08/28 16:02:20;;;;;;;;;;;;;;;;;;5025179;28;19925;-68
2021/08/28 16:04:47;;;;;;;;;;;;;;;;;;5027654;28;19925;-68
2021/08/28 16:07:14;;;;;;;;;;;;;;;;;;5022149;28;20329;-68
2021/08/28 16:09:42;;;;;;;;;;;;;;;;;;5022138;28;20305;-68
2021/08/28 16:12:11;;;;;;;;;;;;;;;;;;5026881;28;19983;-70
2021/08/28 16:14:37;;;;;;;;;;;;;;;;;;5026633;28;19929;-68
2021/08/28 16:17:04;;;;;;;;;;;;;;;;;;5020813;28;20348;-68
2021/08/28 16:19:31;;;;;;;;;;;;;;;;;;5020628;28;19933;-69
2021/08/28 16:21:58;;;;;;;;;;;;;;;;;;5026020;28;19925;-69
2021/08/28 16:24:25;;;;;;;;;;;;;;;;;;5026944;28;19964;-69
2021/08/28 16:26:52;;;;;;;;;;;;;;;;;;5026600;28;20055;-69
2021/08/28 16:29:19;;;;;;;;;;;;;;;;;;5019687;28;20031;-68
2021/08/28 16:31:46;;;;;;;;;;;;;;;;;;5023901;28;19932;-69
2021/08/28 16:34:13;;;;;;;;;;;;;;;;;;5028967;28;20022;-69
2021/08/28 16:36:40;;;;;;;;;;;;;;;;;;5024592;28;20012;-69
2021/08/28 16:39:07;;;;;;;;;;;;;;;;;;5024025;28;20412;-68
2021/08/28 16:41:35;;;;;;;;;;;;;;;;;;5025492;28;19961;-68
2021/08/28 16:44:01;;;;;;;;;;;;;;;;;;5025790;28;19925;-69